Hlavní strana
METAR-TAF:

METAR-TAF

Letiště :

Indianapolis, Indiana, Spojené státy americké

zeměpisná šířka: 39-43-30N, zeměpisná délka: 086-16-55W, výška: 243 m

Aktuální stav počasí

Zpráva byla vytvořena před 9 minutami, v 12:54 UTC
Západní vítr 6 kt
Teplota -1°C
Vlhkost vzduchu 93%
Tlak 1019 hPa
Viditelnost: 11.3 km
Skoro jasno ve výšce 800 ft
Zataženo ve výšce 1900 ft

METAR: KIND 281254Z 26006KT 7SM FEW008 OVC019 M01/M02 A3009 RMK AO2 SLP197 T10061022 $

Čas: 08:03 (13:03 UTC)

Předpověď počasí

Zpráva byla vytvořena před 1 hodinou a 43 minutami, v 11:20 UTC
Předpověď platná od 28 v 12 UTC do 29 v 18 UTC
vítr z různých směrů 4 kt
Viditelnost: 10 km
Polojasno ve výšce 800 ft
Zataženo ve výšce 1500 ft
Od 28 v 2100 UTC
Západní vítr 5 kt
Viditelnost: 10 km
Zataženo ve výšce 1500 ft
Od 29 v 0800 UTC
vítr z různých směrů 3 kt
Viditelnost: 8.0 km
Zataženo ve výšce 900 ft
kouřmo

TAF: KIND 281120Z 2812/2918 VRB04KT P6SM SCT008 OVC015 FM282100 27005KT P6SM OVC015 FM290800 VRB03KT 5SM BR OVC009

Stav a předpovědi počasí z více než 4 000 letišť (zprávy METAR a TAF).

Červené a žluté tečky na mapě představují dostupné meteorologické stanice.

Když kurzor umístíte na tečku, zobrazí se název stanice.

Pak kliknutím zobrazíte stav a předpověď počasí.

Chcete-li změnit mapu, kliknutím na zelené tlačítko se znaménkem +mapu přiblížíte, kliknutím na zelené tlačítko se znaménkem – mapu oddálíte a kliknutím na zelené šipky přejdete na sousední mapy.


METAR-TAF: